Selma, VA (24474)

7:14 AM EST on December 21, 2014 (GMT -0500)
Alleghany Street | Change Station
CLOSE
Current Station
Personal Weather Station
Location: Clifton Forge, VA
Elevation: 1175 ft
Nearby Weather Stations

Elev 1175 ft 37.81 °N, 79.84 °W | Updated 3 minutes ago

Overcast
Overcast
34.3 °F
Feels Like 34 °F
N
0.0
Wind Variable Wind from NNE

Today
High -- | Low -- °F
--% Chance of Precip.
Yesterday
High -- | Low -- °F
Precip. -- in
7:31 AM 5:03 PM
Waning Crescent, 0% visible
Pressure 30.22 in
Visibility 10.0 miles
Clouds Overcast 3000 ft
Windchill 34 °F
Dew Point 29 °F
Humidity 81%
Rainfall 0.00 in
Snow Depth Not available.
UV 0 out of 12
Pollen .10 out of 12
Air Quality Not available.
Flu Activity Not available.
METAR KLWB 211155Z AUTO 00000KT 10SM OVC030 01/M01 A3022 RMK AO2 T00101010 10016 20010

More Conditions Fewer Conditions

Pressure 30.22 in
Visibility 10.0 miles
Clouds Overcast 3000 ft
Windchill 34 °F
Dew Point 29 °F
Humidity 81%
Rainfall 0.00 in
Snow Depth Not available.
UV 0 out of 12
Pollen .10 out of 12
Air Quality Not available.
Flu Activity Not available.
METAR KLWB 211155Z AUTO 00000KT 10SM OVC030 01/M01 A3022 RMK AO2 T00101010 10016 20010

More Conditions Fewer Conditions

10-Day Weather Forecast

Almanac

Astronomy

Dec. 21, 2014 Rise Set
Actual Time
Civil Twilight
Nautical Twilight
Astronomical Twilight
Moon
Length of Visible Light
Length of Day
Tomorrow will be .
, % of the Moon is Illuminated

Today's Extremes

State Highs State Lows

Community

WunderPhotos

Upload Photos

1,779,371 photos uploaded!

WunderBlogs® & News

Nearby

Air Quality

  Air Quality AQ Index Pollutant
Not available.

Snow Depth

Station Depth Elevation

Earthquake Activity

City Distance Mag. Time & Date
Minimum magnitude displayed is 2.5.

Coastal Water Temperatures

Place Temperature

Nearby Weather Stations